Time;durP1;ratioP1;P1;durP2;ratioP2;P2;SDS_P1;SDS_P2;PMS_P1;PMS_P2;Temp;Humidity;BMP_temperature;BMP_pressure;BME280_temperature;BME280_humidity;BME280_pressure;Samples;Min_cycle;Max_cycle;Signal;HPM_P1;HPM_P2
2021/08/13 04:02:40;;;;;;;18.77;16.90;;;20.90;99.90;;;;;;4974330;28;20459;-69
2021/08/13 04:05:07;;;;;;;17.43;15.93;;;20.90;99.90;;;;;;4975625;28;20435;-69
2021/08/13 04:07:34;;;;;;;17.00;15.50;;;20.90;99.90;;;;;;4975534;28;20454;-69
2021/08/13 04:10:01;;;;;;;18.43;16.57;;;20.90;99.90;;;;;;4977587;28;20458;-69
2021/08/13 04:12:27;;;;;;;18.63;16.83;;;20.90;99.90;;;;;;4981483;28;20477;-68
2021/08/13 04:14:54;;;;;;;18.17;16.50;;;20.90;99.90;;;;;;4981672;28;20458;-69
2021/08/13 04:17:21;;;;;;;17.63;16.13;;;21.00;99.90;;;;;;4981971;28;20458;-67
2021/08/13 04:19:49;;;;;;;17.03;15.57;;;21.00;99.90;;;;;;4975423;28;20529;-69
2021/08/13 04:22:16;;;;;;;17.33;15.90;;;21.00;99.90;;;;;;4975246;28;20510;-69
2021/08/13 04:24:43;;;;;;;18.07;16.40;;;21.00;99.90;;;;;;4975212;28;20509;-69
2021/08/13 04:27:10;;;;;;;18.23;16.37;;;21.00;99.90;;;;;;4975094;28;20454;-68
2021/08/13 04:29:37;;;;;;;16.63;15.33;;;21.00;99.90;;;;;;4974800;28;20465;-67
2021/08/13 04:32:04;;;;;;;16.73;15.33;;;20.90;99.90;;;;;;4974489;28;20985;-67
2021/08/13 04:34:31;;;;;;;16.43;15.13;;;20.80;99.90;;;;;;4975232;28;20490;-69
2021/08/13 04:36:59;;;;;;;16.07;14.57;;;20.90;99.90;;;;;;4974879;28;20447;-67
2021/08/13 04:39:25;;;;;;;17.60;16.00;;;20.80;99.90;;;;;;4974969;28;20459;-68
2021/08/13 04:41:52;;;;;;;17.83;16.37;;;20.90;99.90;;;;;;4974928;28;20475;-67
2021/08/13 04:44:19;;;;;;;16.03;14.73;;;20.80;99.90;;;;;;4974521;28;20451;-68
2021/08/13 04:46:45;;;;;;;16.53;15.03;;;20.80;99.90;;;;;;4974607;28;20459;-67
2021/08/13 04:49:15;;;;;;;16.67;15.07;;;20.80;99.90;;;;;;4974963;28;20811;-67
2021/08/13 04:51:41;;;;;;;16.40;14.87;;;20.80;99.90;;;;;;4974940;28;20475;-69
2021/08/13 04:54:10;;;;;;;16.60;15.20;;;20.80;99.90;;;;;;4975693;28;20843;-67
2021/08/13 04:56:37;;;;;;;15.73;14.30;;;20.70;99.90;;;;;;4974713;28;20902;-68
2021/08/13 04:59:04;;;;;;;16.53;15.03;;;20.80;99.90;;;;;;4974768;28;20450;-68
2021/08/13 05:01:31;;;;;;;16.70;15.10;;;20.70;99.90;;;;;;4974427;28;20486;-68
2021/08/13 05:03:57;;;;;;;15.90;14.50;;;20.70;99.90;;;;;;4974726;28;20450;-68
2021/08/13 05:06:24;;;;;;;16.60;15.07;;;20.70;99.90;;;;;;4974413;28;20451;-68
2021/08/13 05:08:51;;;;;;;17.03;15.23;;;20.60;99.90;;;;;;4974723;28;20814;-67
2021/08/13 05:11:19;;;;;;;16.13;14.60;;;20.60;99.90;;;;;;4974670;28;20486;-68
2021/08/13 05:13:45;;;;;;;16.57;14.80;;;20.60;99.90;;;;;;4974323;28;20881;-65
2021/08/13 05:16:12;;;;;;;14.87;13.40;;;20.60;99.90;;;;;;4974728;28;20461;-67
2021/08/13 05:18:39;;;;;;;15.57;14.27;;;20.60;99.90;;;;;;4978177;28;20458;-66
2021/08/13 05:21:06;;;;;;;18.07;15.23;;;20.60;99.90;;;;;;4977545;28;20478;-67
2021/08/13 05:23:33;;;;;;;16.20;14.50;;;20.70;99.90;;;;;;4975745;28;20443;-67
2021/08/13 05:26:00;;;;;;;15.83;14.53;;;20.70;99.90;;;;;;4975007;28;20490;-67
2021/08/13 05:28:28;;;;;;;15.07;13.70;;;20.70;99.90;;;;;;4977717;28;20910;-64
2021/08/13 05:30:55;;;;;;;15.70;14.27;;;20.70;99.90;;;;;;4974664;28;20478;-63
2021/08/13 05:33:22;;;;;;;15.60;14.30;;;20.70;99.90;;;;;;4974539;28;20482;-63
2021/08/13 05:35:49;;;;;;;15.83;13.20;;;20.70;99.90;;;;;;4975131;28;20874;-64
2021/08/13 05:38:15;;;;;;;16.07;14.67;;;20.70;99.90;;;;;;4974852;28;20462;-64
2021/08/13 05:40:42;;;;;;;15.67;14.27;;;20.80;99.90;;;;;;4974621;28;20479;-64
2021/08/13 05:43:09;;;;;;;16.70;15.30;;;20.80;99.90;;;;;;4974560;28;20457;-63
2021/08/13 05:45:37;;;;;;;15.50;14.10;;;20.80;99.90;;;;;;4974509;28;20466;-64
2021/08/13 05:48:04;;;;;;;17.07;15.57;;;20.80;99.90;;;;;;4974226;28;20458;-63
2021/08/13 05:50:31;;;;;;;16.57;14.47;;;20.90;99.90;;;;;;4974387;28;21032;-63
2021/08/13 05:52:58;;;;;;;19.27;15.17;;;21.00;99.90;;;;;;4974229;28;20462;-63
2021/08/13 05:55:25;;;;;;;16.67;14.97;;;21.20;99.90;;;;;;4974736;28;20458;-64
2021/08/13 05:57:51;;;;;;;16.07;14.47;;;21.40;99.90;;;;;;4977628;28;20466;-64
2021/08/13 06:00:18;;;;;;;15.70;14.40;;;21.80;99.90;;;;;;4977488;28;20454;-65
2021/08/13 06:02:54;;;;;;;14.30;12.90;;;22.00;99.90;;;;;;4977344;28;20932;-64
2021/08/13 06:05:21;;;;;;;14.27;12.43;;;22.50;99.90;;;;;;4977651;28;20458;-64
2021/08/13 06:07:47;;;;;;;14.20;12.90;;;23.10;99.90;;;;;;4977637;28;20454;-64
2021/08/13 06:10:14;;;;;;;15.63;14.13;;;23.60;99.90;;;;;;4977364;28;20455;-65
2021/08/13 06:12:41;;;;;;;13.73;12.53;;;24.00;99.90;;;;;;4977239;28;20965;-65
2021/08/13 06:15:08;;;;;;;15.43;13.60;;;24.50;99.90;;;;;;4977528;28;20489;-63
2021/08/13 06:17:35;;;;;;;13.30;12.17;;;24.80;99.90;;;;;;4977056;28;20449;-63
2021/08/13 06:20:04;;;;;;;14.57;13.27;;;25.20;99.90;;;;;;4976963;28;20513;-63
2021/08/13 06:22:31;;;;;;;14.20;12.83;;;25.70;99.90;;;;;;4977406;28;20478;-63
2021/08/13 06:24:57;;;;;;;15.10;13.90;;;26.10;99.90;;;;;;4977190;28;20495;-63
2021/08/13 06:27:24;;;;;;;14.40;13.13;;;26.20;99.90;;;;;;4976952;28;20954;-63
2021/08/13 06:29:51;;;;;;;15.10;13.80;;;26.40;99.90;;;;;;4977010;28;20812;-64
2021/08/13 06:32:19;;;;;;;14.40;13.13;;;26.60;99.90;;;;;;4977020;28;20985;-63
2021/08/13 06:34:45;;;;;;;14.27;12.87;;;26.80;99.90;;;;;;4977004;28;20486;-63
2021/08/13 06:37:13;;;;;;;15.10;13.53;;;27.10;99.90;;;;;;4977108;28;20454;-63
2021/08/13 06:39:40;;;;;;;14.70;13.60;;;27.40;99.90;;;;;;4977216;28;20481;-63
2021/08/13 06:42:07;;;;;;;15.60;14.00;;;27.50;99.90;;;;;;4976794;28;20479;-63
2021/08/13 06:44:34;;;;;;;14.77;13.60;;;27.70;99.90;;;;;;4976745;28;20451;-63
2021/08/13 06:47:00;;;;;;;14.70;13.37;;;28.00;99.90;;;;;;4977014;28;20459;-63
2021/08/13 06:49:27;;;;;;;15.47;13.10;;;28.20;99.90;;;;;;4977047;28;20447;-63
2021/08/13 06:51:54;;;;;;;14.37;13.10;;;28.40;99.90;;;;;;4976363;28;20485;-62
2021/08/13 06:54:22;;;;;;;13.67;12.60;;;28.10;99.90;;;;;;4976639;28;20478;-63
2021/08/13 06:56:48;;;;;;;14.50;13.10;;;28.40;99.90;;;;;;4976297;28;20972;-63
2021/08/13 06:59:15;;;;;;;13.00;11.77;;;28.80;99.90;;;;;;4976844;28;20439;-64
2021/08/13 07:01:42;;;;;;;14.00;12.70;;;28.90;99.90;;;;;;4976293;28;20494;-65
2021/08/13 07:04:08;;;;;;;13.57;12.50;;;28.70;99.90;;;;;;4977001;28;20451;-65
2021/08/13 07:06:35;;;;;;;15.13;13.67;;;28.80;99.90;;;;;;4976691;28;20498;-65
2021/08/13 07:09:02;;;;;;;14.27;12.90;;;28.70;99.90;;;;;;4977088;28;20439;-64
2021/08/13 07:11:30;;;;;;;17.10;15.37;;;28.70;99.90;;;;;;4976638;28;20479;-64
2021/08/13 07:13:56;;;;;;;14.30;13.03;;;28.70;99.90;;;;;;4977096;28;20475;-64
2021/08/13 07:16:23;;;;;;;15.80;13.23;;;28.80;99.90;;;;;;4976830;28;20462;-64
2021/08/13 07:18:50;;;;;;;15.13;13.60;;;28.90;99.90;;;;;;4977413;28;20442;-64
2021/08/13 07:21:17;;;;;;;14.33;13.03;;;29.10;99.90;;;;;;4976053;28;20985;-64
2021/08/13 07:23:43;;;;;;;14.20;12.93;;;29.00;99.90;;;;;;4976321;28;20477;-65
2021/08/13 07:26:10;;;;;;;12.83;11.63;;;29.00;99.90;;;;;;4976526;28;20459;-64
2021/08/13 07:28:38;;;;;;;14.33;12.83;;;28.90;99.90;;;;;;4976170;28;20459;-64
2021/08/13 07:31:05;;;;;;;13.33;12.13;;;29.00;99.90;;;;;;4976049;28;20829;-64
2021/08/13 07:33:31;;;;;;;12.87;11.67;;;29.60;99.90;;;;;;4976077;28;20459;-64
2021/08/13 07:35:58;;;;;;;14.77;13.37;;;30.20;99.90;;;;;;4976235;28;20829;-65
2021/08/13 07:38:25;;;;;;;14.97;13.67;;;30.30;99.90;;;;;;4976179;28;20462;-65
2021/08/13 07:40:51;;;;;;;12.80;11.77;;;30.50;99.90;;;;;;4976728;28;20478;-65
2021/08/13 07:43:18;;;;;;;15.30;13.90;;;30.70;99.90;;;;;;4976645;28;20461;-65
2021/08/13 07:45:46;;;;;;;14.47;13.27;;;30.50;99.90;;;;;;4975914;28;20459;-65
2021/08/13 07:48:13;;;;;;;14.23;12.90;;;30.80;99.90;;;;;;4976165;28;20850;-65
2021/08/13 07:50:39;;;;;;;14.00;12.90;;;31.40;99.90;;;;;;4975726;28;21069;-64
2021/08/13 07:53:06;;;;;;;13.60;12.20;;;31.40;99.90;;;;;;4976052;28;20439;-65
2021/08/13 07:55:33;;;;;;;14.17;12.90;;;31.90;99.90;;;;;;4976051;28;20470;-64
2021/08/13 07:57:59;;;;;;;14.53;13.20;;;32.40;99.90;;;;;;4975916;28;20438;-65
2021/08/13 08:00:26;;;;;;;13.33;12.23;;;32.80;99.90;;;;;;4975747;28;20439;-65
2021/08/13 08:02:54;;;;;;;13.80;12.53;;;33.30;99.90;;;;;;4976352;28;20471;-65
2021/08/13 08:05:21;;;;;;;13.93;12.63;;;33.40;99.90;;;;;;4976520;28;20449;-65
2021/08/13 08:07:48;;;;;;;12.97;11.87;;;33.80;99.90;;;;;;4976104;28;20934;-65
2021/08/13 08:10:15;;;;;;;12.63;11.53;;;34.10;99.90;;;;;;4976385;28;20455;-65
2021/08/13 08:12:42;;;;;;;12.40;11.40;;;34.40;99.90;;;;;;4976708;28;20941;-65
2021/08/13 08:15:10;;;;;;;11.20;10.10;;;34.80;98.40;;;;;;4977070;28;20488;-66
2021/08/13 08:17:37;;;;;;;12.37;11.23;;;35.40;97.50;;;;;;4977418;28;20552;-66
2021/08/13 08:20:06;;;;;;;12.57;11.47;;;35.60;96.70;;;;;;4977628;28;20459;-66
2021/08/13 08:22:34;;;;;;;11.27;10.37;;;35.90;95.30;;;;;;4976952;28;20477;-66
2021/08/13 08:25:01;;;;;;;12.40;11.33;;;36.20;94.50;;;;;;4976627;28;20459;-66
2021/08/13 08:27:28;;;;;;;11.70;10.63;;;36.00;91.60;;;;;;4976971;28;20459;-66
2021/08/13 08:29:54;;;;;;;11.70;10.70;;;35.60;92.10;;;;;;4977191;28;20945;-66
2021/08/13 08:32:21;;;;;;;12.43;11.00;;;35.70;93.10;;;;;;4977136;28;20485;-66
2021/08/13 08:34:48;;;;;;;14.03;11.70;;;35.90;91.80;;;;;;4980732;28;20480;-66
2021/08/13 08:37:17;;;;;;;12.67;11.43;;;36.10;91.30;;;;;;4977480;28;20481;-66
2021/08/13 08:39:45;;;;;;;11.07;10.03;;;36.10;90.90;;;;;;4978157;28;20457;-66
2021/08/13 08:42:13;;;;;;;10.90;10.00;;;36.00;90.50;;;;;;4977887;28;20562;-66
2021/08/13 08:44:40;;;;;;;10.87;10.00;;;35.70;89.60;;;;;;4977631;28;20857;-66
2021/08/13 08:47:08;;;;;;;12.60;11.50;;;35.20;90.60;;;;;;4977796;28;20860;-66
2021/08/13 08:49:37;;;;;;;12.20;11.10;;;35.70;90.50;;;;;;4977092;28;20443;-66
2021/08/13 08:52:05;;;;;;;10.80;10.00;;;35.60;88.70;;;;;;4976743;28;20487;-67
2021/08/13 08:54:34;;;;;;;12.93;11.83;;;35.50;89.10;;;;;;4977376;28;20473;-66
2021/08/13 08:57:03;;;;;;;10.60;9.80;;;35.40;90.80;;;;;;4977465;28;20513;-67
2021/08/13 08:59:29;;;;;;;11.20;10.30;;;35.90;92.40;;;;;;4976898;28;20528;-66
2021/08/13 09:01:57;;;;;;;11.23;10.07;;;36.30;89.70;;;;;;4977842;28;20487;-66
2021/08/13 09:04:23;;;;;;;11.37;10.37;;;36.20;90.30;;;;;;4977139;28;20464;-66
2021/08/13 09:06:50;;;;;;;10.63;9.80;;;36.50;87.60;;;;;;4977035;28;20464;-67
2021/08/13 09:09:17;;;;;;;10.60;9.80;;;36.90;84.80;;;;;;4977374;28;20460;-67
2021/08/13 09:11:46;;;;;;;9.87;8.97;;;37.00;85.30;;;;;;4976476;28;20476;-66
2021/08/13 09:14:14;;;;;;;9.20;8.60;;;37.20;82.50;;;;;;4976793;28;20457;-66
2021/08/13 09:17:01;;;;;;;10.17;9.20;;;37.70;81.20;;;;;;4976694;28;20464;-66
2021/08/13 09:19:38;;;;;;;9.57;8.90;;;38.30;80.90;;;;;;4977560;28;20455;-66
2021/08/13 09:22:10;;;;;;;9.10;8.50;;;38.70;76.20;;;;;;4977093;28;20470;-66
2021/08/13 09:24:40;;;;;;;9.90;9.20;;;38.60;74.30;;;;;;4976671;28;20466;-66
2021/08/13 09:27:20;;;;;;;9.70;9.00;;;38.90;74.10;;;;;;4981559;28;20439;-66
2021/08/13 09:30:07;;;;;;;9.97;9.27;;;39.20;71.30;;;;;;4983822;28;20443;-67
2021/08/13 09:32:33;;;;;;;9.93;9.20;;;39.00;71.70;;;;;;4986892;28;20474;-66
2021/08/13 09:35:00;;;;;;;9.30;8.60;;;38.80;69.60;;;;;;4984283;28;20487;-66
2021/08/13 09:37:27;;;;;;;10.67;9.87;;;38.10;71.70;;;;;;4980216;28;20468;-66
2021/08/13 09:39:54;;;;;;;10.10;9.30;;;38.10;72.90;;;;;;4980134;28;20978;-66
2021/08/13 09:42:33;;;;;;;9.70;9.00;;;38.30;72.20;;;;;;4980851;28;20484;-67
2021/08/13 09:45:01;;;;;;;9.57;8.87;;;38.30;72.30;;;;;;4981062;28;20441;-67
2021/08/13 09:47:40;;;;;;;9.50;8.90;;;38.50;71.90;;;;;;4981734;28;20464;-67
2021/08/13 09:50:08;;;;;;;8.80;8.20;;;38.80;70.50;;;;;;4981440;28;20453;-67
2021/08/13 09:52:34;;;;;;;9.63;8.73;;;38.80;69.70;;;;;;4982098;28;20480;-66
2021/08/13 09:55:14;;;;;;;8.53;7.90;;;39.40;70.90;;;;;;4981558;28;21027;-67
2021/08/13 09:57:44;;;;;;;9.57;8.87;;;39.10;68.70;;;;;;4981220;28;20443;-66
2021/08/13 10:00:12;;;;;;;9.43;8.63;;;38.70;71.60;;;;;;4981143;28;20451;-67
2021/08/13 10:02:40;;;;;;;9.20;8.43;;;38.90;69.60;;;;;;4980113;28;20573;-67
2021/08/13 10:05:19;;;;;;;10.97;9.87;;;39.30;69.10;;;;;;4980256;28;20947;-67
2021/08/13 10:07:47;;;;;;;8.50;7.80;;;39.00;68.00;;;;;;4979619;28;20468;-67
2021/08/13 10:10:15;;;;;;;8.90;8.30;;;39.30;68.70;;;;;;4979883;28;20461;-67
2021/08/13 10:12:45;;;;;;;9.37;8.67;;;39.30;68.70;;;;;;4978750;28;20200;-67
2021/08/13 10:15:28;;;;;;;10.00;9.17;;;39.20;74.70;;;;;;4978483;28;20869;-66
2021/08/13 10:17:56;;;;;;;9.20;8.60;;;39.10;69.00;;;;;;4978316;28;20444;-67
2021/08/13 10:20:24;;;;;;;9.10;8.43;;;38.80;70.40;;;;;;4978457;28;20485;-66
2021/08/13 10:22:51;;;;;;;10.43;9.10;;;39.10;67.20;;;;;;4978281;28;20455;-66
2021/08/13 10:25:19;;;;;;;9.87;8.80;;;39.00;66.90;;;;;;4978688;28;20452;-68
2021/08/13 10:27:48;;;;;;;20.53;11.40;;;38.60;68.90;;;;;;4977950;28;20485;-69
2021/08/13 10:30:17;;;;;;;35.50;22.00;;;38.20;69.30;;;;;;4977806;28;21055;-69
2021/08/13 10:32:45;;;;;;;35.10;24.03;;;37.70;73.40;;;;;;4978106;28;20515;-69
2021/08/13 10:35:12;;;;;;;13.77;11.03;;;37.80;73.60;;;;;;4977856;28;20487;-69
2021/08/13 10:37:40;;;;;;;10.93;10.00;;;37.90;72.00;;;;;;4977966;28;20830;-69
2021/08/13 10:40:09;;;;;;;9.83;9.07;;;37.50;69.90;;;;;;4977587;28;20987;-69
2021/08/13 10:42:39;;;;;;;10.97;9.00;;;37.40;73.30;;;;;;4976685;28;20873;-69
2021/08/13 10:45:10;;;;;;;10.10;9.30;;;37.60;73.10;;;;;;4977347;28;20930;-69
2021/08/13 10:47:42;;;;;;;10.70;9.90;;;37.30;72.20;;;;;;4976717;28;20452;-69
2021/08/13 10:50:10;;;;;;;10.93;9.87;;;36.70;73.60;;;;;;4977109;28;20445;-69
2021/08/13 10:52:39;;;;;;;9.60;8.80;;;36.60;74.30;;;;;;4977045;28;20476;-69
2021/08/13 10:55:08;;;;;;;10.23;9.33;;;37.20;75.60;;;;;;4976690;28;20815;-69
2021/08/13 10:57:59;;;;;;;9.57;8.87;;;37.60;73.30;;;;;;4976975;28;20459;-69
2021/08/13 11:00:47;;;;;;;9.60;8.80;;;38.20;73.80;;;;;;4977488;28;20447;-69
2021/08/13 11:03:19;;;;;;;10.17;9.37;;;38.60;73.80;;;;;;4977248;28;20547;-69
2021/08/13 11:05:54;;;;;;;9.73;8.93;;;38.60;69.40;;;;;;4977111;28;20490;-69
2021/08/13 11:08:20;;;;;;;9.63;8.73;;;37.90;72.10;;;;;;4977013;28;20543;-69
2021/08/13 11:10:57;;;;;;;89.27;15.00;;;38.20;70.60;;;;;;4977033;28;20476;-69
2021/08/13 11:13:25;;;;;;;8.60;7.80;;;38.30;72.40;;;;;;4976450;28;20450;-69
2021/08/13 11:15:54;;;;;;;9.37;8.60;;;38.70;69.60;;;;;;4977076;28;20220;-69
2021/08/13 11:18:34;;;;;;;9.27;8.43;;;38.40;69.70;;;;;;4976745;28;20823;-69
2021/08/13 11:21:02;;;;;;;8.73;8.00;;;38.20;68.70;;;;;;4976570;28;20474;-68
2021/08/13 11:23:29;;;;;;;10.33;8.20;;;38.10;70.70;;;;;;4976548;28;20470;-68
2021/08/13 11:25:57;;;;;;;8.93;8.20;;;37.80;70.90;;;;;;4976405;28;20450;-68
2021/08/13 11:28:25;;;;;;;9.70;8.80;;;37.30;73.30;;;;;;4975989;28;20944;-68
2021/08/13 11:30:54;;;;;;;9.40;8.70;;;36.80;72.50;;;;;;4975970;28;20480;-68
2021/08/13 11:33:40;;;;;;;8.50;7.70;;;36.10;78.90;;;;;;4976357;28;20449;-68
2021/08/13 11:36:08;;;;;;;10.07;9.07;;;36.00;75.90;;;;;;4975648;28;20474;-69
2021/08/13 11:38:57;;;;;;;9.93;9.13;;;35.80;73.50;;;;;;4976358;28;20514;-68
2021/08/13 11:41:28;;;;;;;10.47;9.47;;;35.40;78.60;;;;;;4976033;28;20511;-68
2021/08/13 11:43:57;;;;;;;8.70;7.97;;;35.50;76.90;;;;;;4976086;28;20465;-69
2021/08/13 11:46:27;;;;;;;8.77;7.97;;;35.40;78.50;;;;;;4975864;28;20442;-69
2021/08/13 11:48:58;;;;;;;9.43;8.63;;;35.10;80.90;;;;;;4975862;28;20438;-69
2021/08/13 11:51:26;;;;;;;10.70;8.60;;;34.80;83.70;;;;;;4975915;28;20470;-68
2021/08/13 11:53:53;;;;;;;9.70;8.67;;;34.60;79.10;;;;;;4975885;28;20469;-69
2021/08/13 11:56:24;;;;;;;9.23;8.43;;;34.50;81.50;;;;;;4975928;28;20577;-69
2021/08/13 11:58:58;;;;;;;9.37;8.50;;;34.60;81.90;;;;;;4976089;28;20466;-68
2021/08/13 12:01:27;;;;;;;11.37;8.77;;;34.30;80.20;;;;;;4976256;28;20494;-69
2021/08/13 12:03:54;;;;;;;9.20;8.03;;;34.20;81.70;;;;;;4975713;28;20461;-69
2021/08/13 12:06:20;;;;;;;8.93;8.23;;;34.40;82.60;;;;;;4975646;28;20461;-69
2021/08/13 12:08:48;;;;;;;8.93;8.07;;;34.10;83.00;;;;;;4975376;28;20942;-69
2021/08/13 12:11:22;;;;;;;9.13;8.23;;;33.90;84.80;;;;;;4975089;28;21000;-69
2021/08/13 12:13:48;;;;;;;9.40;8.60;;;33.50;85.50;;;;;;4976035;28;20446;-69
2021/08/13 12:16:18;;;;;;;8.30;7.40;;;33.90;83.90;;;;;;4974973;28;20474;-69
2021/08/13 12:18:47;;;;;;;9.47;8.50;;;34.00;82.90;;;;;;4975398;28;20460;-68
2021/08/13 12:21:15;;;;;;;9.27;8.37;;;34.30;87.50;;;;;;4974967;28;20474;-69
2021/08/13 12:23:56;;;;;;;14.37;9.63;;;34.50;83.90;;;;;;4975151;28;20933;-69
2021/08/13 12:26:29;;;;;;;22.20;10.33;;;34.60;86.10;;;;;;4975502;28;20466;-69
2021/08/13 12:28:56;;;;;;;12.30;9.10;;;34.70;82.70;;;;;;4975216;28;20464;-69
2021/08/13 12:31:22;;;;;;;9.07;8.20;;;35.00;84.00;;;;;;4974938;28;20996;-69
2021/08/13 12:33:58;;;;;;;8.87;8.07;;;35.00;84.80;;;;;;4975319;28;20458;-69
2021/08/13 12:36:25;;;;;;;9.80;8.93;;;34.80;82.00;;;;;;4975373;28;20488;-68
2021/08/13 12:38:57;;;;;;;10.10;9.20;;;34.50;83.40;;;;;;4975622;28;20490;-69
2021/08/13 12:41:24;;;;;;;9.00;8.10;;;34.60;83.00;;;;;;4974995;28;21004;-69
2021/08/13 12:43:51;;;;;;;10.00;8.20;;;34.80;86.60;;;;;;4975222;28;20454;-69
2021/08/13 12:46:18;;;;;;;9.17;8.27;;;34.80;85.10;;;;;;4974628;28;20457;-69
2021/08/13 12:48:45;;;;;;;8.97;8.10;;;34.70;84.50;;;;;;4975298;28;20466;-69
2021/08/13 12:51:26;;;;;;;9.63;8.60;;;34.60;83.60;;;;;;4975177;28;21008;-68
2021/08/13 12:53:53;;;;;;;8.87;7.40;;;34.30;83.10;;;;;;4975959;28;20442;-69
2021/08/13 12:56:22;;;;;;;8.37;7.60;;;34.20;84.40;;;;;;4975451;28;20478;-69
2021/08/13 12:58:48;;;;;;;8.20;7.40;;;33.70;85.40;;;;;;4975243;28;20454;-68
2021/08/13 13:01:28;;;;;;;8.30;7.60;;;33.30;85.80;;;;;;4974656;28;20566;-68
2021/08/13 13:04:13;;;;;;;8.60;7.77;;;33.20;88.20;;;;;;4975140;28;20457;-68
2021/08/13 13:06:42;;;;;;;7.20;6.70;;;33.40;89.00;;;;;;4978951;28;20868;-69
2021/08/13 13:09:10;;;;;;;8.10;6.90;;;33.60;88.00;;;;;;4979244;28;20454;-68
2021/08/13 13:11:37;;;;;;;8.50;7.70;;;33.70;88.00;;;;;;4978924;28;20500;-68
2021/08/13 13:14:05;;;;;;;7.80;7.10;;;33.90;86.10;;;;;;4979043;28;20454;-68
2021/08/13 13:16:32;;;;;;;8.73;8.00;;;34.10;85.80;;;;;;4978428;28;20999;-68
2021/08/13 13:19:19;;;;;;;8.40;7.60;;;34.10;85.40;;;;;;4978704;28;20805;-68
2021/08/13 13:21:48;;;;;;;6.87;6.27;;;33.70;84.90;;;;;;4978510;28;20496;-68
2021/08/13 13:24:19;;;;;;;8.70;7.40;;;33.90;86.70;;;;;;4978616;28;20465;-68
2021/08/13 13:27:00;;;;;;;7.43;6.73;;;34.10;88.30;;;;;;4978492;28;20473;-68
2021/08/13 13:29:42;;;;;;;7.83;7.13;;;34.20;86.00;;;;;;4979392;28;20774;-68
2021/08/13 13:32:17;;;;;;;7.37;6.60;;;34.30;85.20;;;;;;4978307;28;20568;-68
2021/08/13 13:34:57;;;;;;;8.67;7.87;;;33.70;85.00;;;;;;4978826;28;20461;-68
2021/08/13 13:37:27;;;;;;;8.23;7.53;;;33.70;87.20;;;;;;4979237;28;21015;-68
2021/08/13 13:39:55;;;;;;;7.17;6.60;;;34.00;87.10;;;;;;4979030;28;20493;-69
2021/08/13 13:42:27;;;;;;;8.63;7.67;;;34.30;88.40;;;;;;4978797;28;20474;-69
2021/08/13 13:45:07;;;;;;;7.77;7.17;;;34.50;87.30;;;;;;4978804;28;20440;-69
2021/08/13 13:47:34;;;;;;;7.90;7.00;;;34.60;82.90;;;;;;4978655;28;20442;-69
2021/08/13 13:50:01;;;;;;;8.50;7.63;;;34.60;84.70;;;;;;4977964;28;20946;-69
2021/08/13 13:52:29;;;;;;;8.10;7.40;;;34.70;86.00;;;;;;4978081;28;20481;-69
2021/08/13 13:54:56;;;;;;;7.90;6.80;;;34.80;82.60;;;;;;4978005;28;20457;-69
2021/08/13 13:57:22;;;;;;;8.63;6.90;;;34.50;83.10;;;;;;4977969;28;20479;-69
2021/08/13 13:59:49;;;;;;;7.57;6.97;;;34.40;83.90;;;;;;4977980;28;20485;-69
2021/08/13 14:02:16;;;;;;;7.97;7.17;;;34.40;83.80;;;;;;4977826;28;20490;-69
2021/08/13 14:04:42;;;;;;;7.50;6.80;;;34.20;80.90;;;;;;4977699;28;20945;-69
2021/08/13 14:07:09;;;;;;;8.30;7.10;;;34.20;83.80;;;;;;4978061;28;20477;-69
2021/08/13 14:09:37;;;;;;;7.80;7.20;;;34.10;84.40;;;;;;4978102;28;20823;-69
2021/08/13 14:12:04;;;;;;;7.70;6.87;;;34.10;85.00;;;;;;4978072;28;20485;-69
2021/08/13 14:14:31;;;;;;;8.40;7.60;;;34.00;82.20;;;;;;4977830;28;20461;-68
2021/08/13 14:16:58;;;;;;;9.33;7.10;;;34.00;85.50;;;;;;4976072;28;20846;-68
2021/08/13 14:19:24;;;;;;;8.53;7.83;;;33.80;82.60;;;;;;4977496;28;20879;-69
2021/08/13 14:21:51;;;;;;;8.40;7.70;;;33.70;82.50;;;;;;4978738;28;20485;-69
2021/08/13 14:24:18;;;;;;;8.17;7.57;;;33.50;81.20;;;;;;4979069;28;20465;-69
2021/08/13 14:26:46;;;;;;;8.33;7.00;;;33.30;83.10;;;;;;4979264;28;20435;-70
2021/08/13 14:29:12;;;;;;;8.10;7.40;;;33.30;80.60;;;;;;4978485;28;20453;-69
2021/08/13 14:31:39;;;;;;;8.67;7.73;;;33.40;82.50;;;;;;4978644;28;20548;-69
2021/08/13 14:34:06;;;;;;;8.33;7.00;;;33.40;82.10;;;;;;4977989;28;20454;-68
2021/08/13 14:36:32;;;;;;;8.57;7.87;;;33.40;81.70;;;;;;4979059;28;20470;-67
2021/08/13 14:38:59;;;;;;;8.07;7.33;;;33.20;82.00;;;;;;4977450;28;20974;-67
2021/08/13 14:41:26;;;;;;;8.33;7.70;;;33.20;82.10;;;;;;4977071;28;20474;-68
2021/08/13 14:43:54;;;;;;;8.40;7.60;;;33.20;81.20;;;;;;4978585;28;20461;-68
2021/08/13 14:46:20;;;;;;;8.57;7.80;;;33.30;84.90;;;;;;4982763;28;20461;-69
2021/08/13 14:48:47;;;;;;;7.30;6.70;;;33.40;81.60;;;;;;4982302;28;20458;-69
2021/08/13 14:51:14;;;;;;;8.30;7.60;;;33.50;84.00;;;;;;4984361;28;20481;-69
2021/08/13 14:53:40;;;;;;;8.43;7.10;;;33.50;81.80;;;;;;4979797;28;20505;-69
2021/08/13 14:56:07;;;;;;;8.73;7.83;;;33.50;81.40;;;;;;4977084;28;20848;-67
2021/08/13 14:58:34;;;;;;;8.53;7.63;;;33.40;80.80;;;;;;4977734;28;20463;-68
2021/08/13 15:01:02;;;;;;;8.30;7.50;;;33.40;79.60;;;;;;4976961;28;20478;-68
2021/08/13 15:03:29;;;;;;;8.10;7.33;;;33.20;79.30;;;;;;4976835;28;20965;-69
2021/08/13 15:05:56;;;;;;;8.37;7.77;;;33.20;82.20;;;;;;4977111;28;20458;-69
2021/08/13 15:08:23;;;;;;;8.20;7.30;;;33.20;81.30;;;;;;4976814;28;20461;-69
2021/08/13 15:10:49;;;;;;;8.90;8.00;;;33.10;80.60;;;;;;4977080;28;20533;-70
2021/08/13 15:13:16;;;;;;;16.30;12.30;;;32.90;81.50;;;;;;4976740;28;20546;-68
2021/08/13 15:15:43;;;;;;;8.90;8.10;;;32.90;83.40;;;;;;4976718;28;20462;-68
2021/08/13 15:18:11;;;;;;;12.17;8.50;;;32.70;81.20;;;;;;4976568;28;20486;-68
2021/08/13 15:20:38;;;;;;;9.33;8.43;;;32.40;81.40;;;;;;4976924;28;20968;-69
2021/08/13 15:23:05;;;;;;;9.00;8.10;;;32.30;84.30;;;;;;4976420;28;20863;-68
2021/08/13 15:25:32;;;;;;;8.83;8.00;;;32.40;83.80;;;;;;4976445;28;20454;-66
2021/08/13 15:27:59;;;;;;;8.37;7.77;;;32.30;84.20;;;;;;4976727;28;20458;-66
2021/08/13 15:30:26;;;;;;;8.57;7.63;;;32.40;84.00;;;;;;4976938;28;20855;-68
2021/08/13 15:32:53;;;;;;;9.63;8.80;;;32.40;83.80;;;;;;4976319;28;20471;-65
2021/08/13 15:35:21;;;;;;;11.23;8.47;;;32.40;85.30;;;;;;4977972;28;20455;-67
2021/08/13 15:37:48;;;;;;;9.10;7.67;;;32.50;84.20;;;;;;4979084;28;20489;-67
2021/08/13 15:40:18;;;;;;;7.57;7.07;;;32.40;83.80;;;;;;4978533;28;20856;-66
2021/08/13 15:42:45;;;;;;;10.07;7.43;;;32.50;85.60;;;;;;4976525;28;20439;-63
2021/08/13 15:45:12;;;;;;;10.57;8.00;;;32.50;84.10;;;;;;4976026;28;20462;-63
2021/08/13 15:47:39;;;;;;;9.20;8.40;;;32.60;85.50;;;;;;4976435;28;20443;-63
2021/08/13 15:50:06;;;;;;;9.37;8.53;;;32.30;84.90;;;;;;4976140;28;20458;-64
2021/08/13 15:52:34;;;;;;;9.50;8.60;;;32.20;85.50;;;;;;4975982;28;20482;-64
2021/08/13 15:55:01;;;;;;;10.83;7.93;;;32.00;86.90;;;;;;4975652;28;20463;-64
2021/08/13 15:57:27;;;;;;;8.57;7.93;;;32.00;86.80;;;;;;4975505;28;20481;-64
2021/08/13 15:59:54;;;;;;;8.47;7.67;;;31.80;87.30;;;;;;4975519;28;20469;-63
2021/08/13 16:02:21;;;;;;;9.07;8.03;;;31.90;88.00;;;;;;4975017;28;20494;-61
2021/08/13 16:04:48;;;;;;;8.23;7.60;;;31.80;88.30;;;;;;4975195;28;20907;-62
2021/08/13 16:07:14;;;;;;;8.20;7.50;;;31.90;86.80;;;;;;4974814;28;20458;-62
2021/08/13 16:09:42;;;;;;;8.67;7.90;;;31.90;88.50;;;;;;4975476;28;20207;-63
2021/08/13 16:12:09;;;;;;;7.97;7.23;;;31.90;87.50;;;;;;4975273;28;20485;-63
2021/08/13 16:14:36;;;;;;;8.80;8.07;;;31.80;88.20;;;;;;4975340;28;20466;-63
2021/08/13 16:17:04;;;;;;;9.00;8.20;;;31.80;88.90;;;;;;4975196;28;20482;-63
2021/08/13 16:19:30;;;;;;;9.00;7.60;;;31.70;88.40;;;;;;4975828;28;20538;-63
2021/08/13 16:21:57;;;;;;;9.80;9.00;;;31.60;89.30;;;;;;4975172;28;20478;-62
2021/08/13 16:24:24;;;;;;;10.87;9.10;;;31.50;90.00;;;;;;4975140;28;20455;-63
2021/08/13 16:26:52;;;;;;;11.03;8.70;;;31.40;90.50;;;;;;4975186;28;20457;-63
2021/08/13 16:29:19;;;;;;;12.33;7.80;;;31.30;90.10;;;;;;4974923;28;20465;-63
2021/08/13 16:31:46;;;;;;;10.50;8.60;;;31.20;90.60;;;;;;4974800;28;20478;-63
2021/08/13 16:34:13;;;;;;;9.90;9.03;;;31.10;91.00;;;;;;4975103;28;20466;-63
2021/08/13 16:36:39;;;;;;;9.43;8.63;;;31.00;91.00;;;;;;4975034;28;20555;-63
2021/08/13 16:39:07;;;;;;;10.70;7.53;;;31.00;91.50;;;;;;4974342;28;20466;-64
2021/08/13 16:41:34;;;;;;;8.93;8.13;;;30.90;91.20;;;;;;4974722;28;21000;-63
2021/08/13 16:44:03;;;;;;;9.70;7.57;;;30.80;91.20;;;;;;4974945;28;20461;-65
2021/08/13 16:46:29;;;;;;;9.43;8.57;;;30.70;91.40;;;;;;4975169;28;20439;-65